Palmdale, CA (93590)

3:36 PM PDT on August 30, 2016 (GMT -0700)
Bolton Avenue | | Change Station

Elev 2608 ft 34.59 °N, 118.06 °W | Updated 3 minutes ago

Clear
Clear
102.7 °F
Feels Like 98 °F
N
9.3
Wind Variable Wind from NNE
Gusts 27.3 mph

Today
High -- | Low -- °F
--% Chance of Precip.
Yesterday
High -- | Low -- °F
Precip. -- in
Pressure 29.79 in
Visibility 10.0 miles
Clouds Clear
Heat Index 98 °F
Dew Point 44 °F
Humidity 13%
Rainfall Not available.
Snow Depth Not available.
6:24 AM 7:20 PM
Waning Crescent, 2% visible
METAR KPMD 302153Z AUTO VRB05KT 10SM CLR 39/M01 A2989 RMK AO2 SLP087 T03941011
Pressure 29.79 in
Visibility 10.0 miles
Clouds Clear
Heat Index 98 °F
Dew Point 44 °F
Humidity 13%
Rainfall Not available.
Snow Depth Not available.
6:24 AM 7:20 PM
Waning Crescent, 2% visible
METAR KPMD 302153Z AUTO VRB05KT 10SM CLR 39/M01 A2989 RMK AO2 SLP087 T03941011

10-Day Weather Forecast

Almanac

Astronomy

Aug. 30, 2016 Rise Set
Actual Time
Civil Twilight
Nautical Twilight
Astronomical Twilight
Moon
Length of Visible Light
Length of Day
Tomorrow will be .
, % of the Moon is Illuminated

Today's Extremes

State Highs State Lows

Community

WunderPhotos

Upload Photos

1,935,914 photos uploaded!

WunderBlog® & News

Nearby

Air Quality

  Air Quality AQ Index Pollutant
Not available.

Snow Depth

Station Depth Elevation

Earthquake Activity

City Distance Mag. Time & Date
Minimum magnitude displayed is 2.5.

Coastal Water Temperatures

Place Temperature

Stations

Nearby Weather Stations

Station Location Temp. Windchill Dew Point Humidity Wind Precip. Elev Updated Type
                   

Watches & Warnings

There are currently no watches in effect.